Time;durP1;ratioP1;P1;durP2;ratioP2;P2;SDS_P1;SDS_P2;PMS_P1;PMS_P2;Temp;Humidity;BMP_temperature;BMP_pressure;BME280_temperature;BME280_humidity;BME280_pressure;Samples;Min_cycle;Max_cycle;Signal;HPM_P1;HPM_P2
2022/10/02 00:01:42;;;;;;;24.00;4.13;;;11.20;99.90;;;;;;5091089;28;20823;-46
2022/10/02 00:04:12;;;;;;;14.57;4.03;;;11.20;99.90;;;;;;5090940;28;20419;-46
2022/10/02 00:06:43;;;;;;;16.30;3.80;;;11.20;99.90;;;;;;5091170;28;20858;-46
2022/10/02 00:09:18;;;;;;;26.17;4.80;;;11.20;99.90;;;;;;5090771;28;20418;-51
2022/10/02 00:11:47;;;;;;;19.17;4.70;;;11.20;99.90;;;;;;5090607;28;20516;-46
2022/10/02 00:14:16;;;;;;;15.83;3.60;;;11.20;99.90;;;;;;5090648;28;21197;-46
2022/10/02 00:16:49;;;;;;;14.13;3.60;;;11.20;99.90;;;;;;5090812;28;20556;-46
2022/10/02 00:19:30;;;;;;;9.43;2.90;;;11.20;99.90;;;;;;5090770;28;20935;-46
2022/10/02 00:22:08;;;;;;;22.47;3.90;;;11.20;99.90;;;;;;5073851;28;20459;-46
2022/10/02 00:25:00;;;;;;;11.13;3.60;;;11.20;99.90;;;;;;5090634;28;20425;-46
2022/10/02 00:27:35;;;;;;;10.77;3.47;;;11.30;99.90;;;;;;5081080;28;20496;-47
2022/10/02 00:30:02;;;;;;;20.57;3.50;;;11.30;99.90;;;;;;5090594;28;20774;-46
2022/10/02 00:32:41;;;;;;;22.07;4.17;;;11.30;99.90;;;;;;5088795;28;20994;-46
2022/10/02 00:35:36;;;;;;;10.50;2.97;;;11.30;99.90;;;;;;5090650;28;20426;-46
2022/10/02 00:38:40;;;;;;;19.97;3.57;;;11.40;99.90;;;;;;5076581;28;20430;-46
2022/10/02 00:41:35;;;;;;;13.73;3.80;;;11.40;99.90;;;;;;5089783;28;20427;-46
2022/10/02 00:44:00;;;;;;;9.57;3.50;;;11.40;99.90;;;;;;5090566;28;20391;-46
2022/10/02 00:46:44;;;;;;;10.70;3.00;;;11.30;99.90;;;;;;5090641;28;20410;-46
2022/10/02 00:49:30;;;;;;;16.00;3.83;;;11.40;99.90;;;;;;5090755;28;20183;-46
2022/10/02 00:52:22;;;;;;;16.60;4.00;;;11.40;99.90;;;;;;5090357;28;20526;-46
2022/10/02 00:55:07;;;;;;;17.40;3.37;;;11.40;99.90;;;;;;5090542;28;20457;-48
2022/10/02 00:57:36;;;;;;;14.40;2.87;;;11.40;99.90;;;;;;5075812;28;20453;-46
2022/10/02 01:00:05;;;;;;;14.73;3.50;;;11.40;99.90;;;;;;5089977;28;20404;-46
2022/10/02 01:02:59;;;;;;;14.43;3.23;;;11.40;99.90;;;;;;5090325;28;20808;-46
2022/10/02 01:05:26;;;;;;;15.53;3.70;;;11.40;99.90;;;;;;5090320;28;20490;-46
2022/10/02 01:07:53;;;;;;;18.37;3.33;;;11.30;99.90;;;;;;5072243;28;20427;-47
2022/10/02 01:10:24;;;;;;;10.63;2.87;;;11.30;99.90;;;;;;5090090;28;20518;-46
2022/10/02 01:12:50;;;;;;;12.23;2.80;;;11.30;99.90;;;;;;5090011;28;20418;-47
2022/10/02 01:15:19;;;;;;;10.73;3.30;;;11.20;99.90;;;;;;5090274;28;20758;-46
2022/10/02 01:17:46;;;;;;;11.47;3.27;;;11.20;99.90;;;;;;5089911;28;20414;-46
2022/10/02 01:20:40;;;;;;;12.90;2.77;;;11.20;99.90;;;;;;5090972;28;20423;-46
2022/10/02 01:23:24;;;;;;;11.07;2.70;;;11.20;99.90;;;;;;5087445;28;20829;-47
2022/10/02 01:25:50;;;;;;;14.73;2.70;;;11.30;99.90;;;;;;5090310;28;20402;-46
2022/10/02 01:28:16;;;;;;;19.60;3.23;;;11.30;99.90;;;;;;5093584;28;20399;-46
2022/10/02 01:30:45;;;;;;;18.63;3.47;;;11.30;99.90;;;;;;5093691;28;20177;-47
2022/10/02 01:33:12;;;;;;;13.17;3.27;;;11.30;99.90;;;;;;5093418;28;20544;-47
2022/10/02 01:35:39;;;;;;;10.87;3.77;;;11.20;99.90;;;;;;5094122;28;20490;-46
2022/10/02 01:38:15;;;;;;;15.23;3.63;;;11.30;99.90;;;;;;5093771;28;20783;-46
2022/10/02 01:40:41;;;;;;;27.73;6.20;;;11.30;99.90;;;;;;5093907;28;20403;-47
2022/10/02 01:43:10;;;;;;;10.30;3.00;;;11.30;99.90;;;;;;5093294;28;20459;-46
2022/10/02 01:46:13;;;;;;;11.37;3.73;;;11.30;99.90;;;;;;5093862;28;20399;-47
2022/10/02 01:48:51;;;;;;;16.07;4.50;;;11.30;99.90;;;;;;5093618;28;20409;-46
2022/10/02 01:51:32;;;;;;;11.50;3.23;;;11.30;99.90;;;;;;5093241;28;20844;-46
2022/10/02 01:54:24;;;;;;;15.93;3.50;;;11.30;99.90;;;;;;5093150;28;20403;-46
2022/10/02 01:57:14;;;;;;;18.13;4.80;;;11.30;99.90;;;;;;5093061;28;20398;-46
2022/10/02 01:59:48;;;;;;;11.33;3.57;;;11.30;99.90;;;;;;5093523;28;20896;-47
2022/10/02 02:02:39;;;;;;;14.57;4.20;;;11.20;99.90;;;;;;5093354;28;20462;-47
2022/10/02 02:05:13;;;;;;;16.70;4.30;;;11.20;99.90;;;;;;5093241;28;20415;-47
2022/10/02 02:07:51;;;;;;;16.13;3.73;;;11.20;99.90;;;;;;5093570;28;20413;-47
2022/10/02 02:10:28;;;;;;;15.73;3.43;;;11.20;1.00;;;;;;5093122;28;20767;-46
2022/10/02 02:13:09;;;;;;;10.10;3.27;;;11.20;1.00;;;;;;5093159;28;20410;-46
2022/10/02 02:15:47;;;;;;;15.70;3.73;;;11.20;1.00;;;;;;5093413;28;20409;-46
2022/10/02 02:18:31;;;;;;;13.10;3.10;;;11.20;1.00;;;;;;5092628;28;20407;-46
2022/10/02 02:21:04;;;;;;;11.80;2.80;;;11.30;1.00;;;;;;5091262;28;21226;-47
2022/10/02 02:23:32;;;;;;;14.47;3.67;;;11.30;1.00;;;;;;5092942;28;20881;-47
2022/10/02 02:26:18;;;;;;;13.30;3.23;;;11.20;1.00;;;;;;5092931;28;20414;-46
2022/10/02 02:28:53;;;;;;;13.10;3.80;;;11.20;1.00;;;;;;5092710;28;20399;-46
2022/10/02 02:31:24;;;;;;;11.63;3.13;;;11.20;1.00;;;;;;5092806;28;20893;-46
2022/10/02 02:33:58;;;;;;;9.30;3.83;;;11.20;1.00;;;;;;5092773;28;20464;-47
2022/10/02 02:36:28;;;;;;;11.23;3.30;;;11.20;1.00;;;;;;5092727;28;20877;-48
2022/10/02 02:39:00;;;;;;;10.87;3.80;;;11.20;1.00;;;;;;5091874;28;20965;-46
2022/10/02 02:41:29;;;;;;;15.23;3.40;;;11.20;1.00;;;;;;5092423;28;20546;-46
2022/10/02 02:43:55;;;;;;;9.27;3.40;;;11.10;1.00;;;;;;5092248;28;20869;-46
2022/10/02 02:47:05;;;;;;;10.50;3.20;;;11.10;1.00;;;;;;5092496;28;20411;-46
2022/10/02 02:49:45;;;;;;;9.03;3.47;;;11.00;99.90;;;;;;5092379;28;20934;-46
2022/10/02 02:52:17;;;;;;;10.90;3.37;;;11.00;99.90;;;;;;5092183;28;20466;-46
2022/10/02 02:54:52;;;;;;;11.10;3.60;;;10.90;1.00;;;;;;5091854;28;20507;-47
2022/10/02 02:57:24;;;;;;;13.60;3.60;;;10.90;1.00;;;;;;5091960;28;20399;-46
2022/10/02 02:59:51;;;;;;;8.73;3.53;;;10.90;1.00;;;;;;5091930;28;20414;-46
2022/10/02 03:02:17;;;;;;;13.73;4.07;;;10.80;1.00;;;;;;5092044;28;20486;-46
2022/10/02 03:04:42;;;;;;;6.53;3.40;;;10.90;1.00;;;;;;5092422;28;20584;-46
2022/10/02 03:07:13;;;;;;;14.57;4.00;;;10.80;1.00;;;;;;5091795;28;20161;-46
2022/10/02 03:09:39;;;;;;;9.33;3.27;;;10.80;1.00;;;;;;5091880;28;20176;-46
2022/10/02 03:12:27;;;;;;;9.00;3.33;;;10.90;1.00;;;;;;5091585;28;20422;-46
2022/10/02 03:15:19;;;;;;;16.27;3.77;;;10.80;1.00;;;;;;5091518;28;20461;-46
2022/10/02 03:18:28;;;;;;;18.53;3.47;;;10.90;1.00;;;;;;5083302;28;20526;-46
2022/10/02 03:21:05;;;;;;;14.33;3.80;;;10.90;1.00;;;;;;5091496;28;20435;-46
2022/10/02 03:23:56;;;;;;;11.13;3.23;;;10.90;1.00;;;;;;5090259;28;20431;-46
2022/10/02 03:26:58;;;;;;;10.73;3.43;;;10.90;1.00;;;;;;5091621;28;20423;-46
2022/10/02 03:29:55;;;;;;;13.97;3.67;;;11.00;1.00;;;;;;5091460;28;20951;-46
2022/10/02 03:32:23;;;;;;;8.80;2.80;;;10.90;1.00;;;;;;5091153;28;20431;-46
2022/10/02 03:34:48;;;;;;;13.83;3.70;;;10.90;1.00;;;;;;5092088;28;20408;-46
2022/10/02 03:37:15;;;;;;;7.53;3.00;;;10.90;1.00;;;;;;5091182;28;20469;-45
2022/10/02 03:39:44;;;;;;;11.50;3.70;;;10.90;1.00;;;;;;5091195;28;20193;-44
2022/10/02 03:42:13;;;;;;;15.13;3.27;;;10.90;1.00;;;;;;5091082;28;20489;-44
2022/10/02 03:44:38;;;;;;;11.40;3.70;;;10.90;1.00;;;;;;5091449;28;20415;-46
2022/10/02 03:47:04;;;;;;;8.57;2.70;;;10.80;1.00;;;;;;5091852;28;20460;-46
2022/10/02 03:49:29;;;;;;;16.70;3.50;;;10.80;1.00;;;;;;5091020;28;20208;-46
2022/10/02 03:51:55;;;;;;;12.53;3.50;;;10.80;1.00;;;;;;5090763;28;20239;-46
2022/10/02 03:54:21;;;;;;;11.50;4.33;;;10.80;1.00;;;;;;5090724;28;20228;-46
2022/10/02 03:57:00;;;;;;;8.67;2.93;;;10.80;1.00;;;;;;5091270;28;20600;-46
2022/10/02 03:59:49;;;;;;;12.47;4.20;;;10.70;1.00;;;;;;5091052;28;20457;-46
2022/10/02 04:02:28;;;;;;;10.60;3.10;;;10.80;1.00;;;;;;5090979;28;20550;-46
2022/10/02 04:05:17;;;;;;;11.73;3.00;;;10.70;1.00;;;;;;5091088;28;20438;-46
2022/10/02 04:07:46;;;;;;;10.40;3.50;;;10.70;1.00;;;;;;5078708;28;20483;-46
2022/10/02 04:10:26;;;;;;;10.40;3.67;;;10.70;1.00;;;;;;5091118;28;20423;-46
2022/10/02 04:13:03;;;;;;;6.30;3.37;;;10.60;1.00;;;;;;5090691;28;21189;-46
2022/10/02 04:16:11;;;;;;;12.80;4.10;;;10.60;1.00;;;;;;5090755;28;20454;-46
2022/10/02 04:19:00;;;;;;;8.37;3.20;;;10.60;1.00;;;;;;5090670;28;20442;-46
2022/10/02 04:21:39;;;;;;;12.83;4.10;;;10.60;1.00;;;;;;5089980;28;20442;-46
2022/10/02 04:24:35;;;;;;;8.00;3.53;;;10.60;1.00;;;;;;5090505;28;20484;-46
2022/10/02 04:27:13;;;;;;;10.40;3.90;;;10.60;1.00;;;;;;5090384;28;20481;-46
2022/10/02 04:29:57;;;;;;;10.93;3.83;;;10.60;1.00;;;;;;5090645;28;20782;-47
2022/10/02 04:32:28;;;;;;;15.10;4.00;;;10.60;1.00;;;;;;5090634;28;20435;-46
2022/10/02 04:34:54;;;;;;;10.13;3.53;;;10.60;1.00;;;;;;5090443;28;20399;-46
2022/10/02 04:37:55;;;;;;;9.47;3.30;;;10.60;1.00;;;;;;5090612;28;20415;-46
2022/10/02 04:40:24;;;;;;;9.13;3.33;;;10.50;1.00;;;;;;5007869;28;20426;-46
2022/10/02 04:43:05;;;;;;;8.93;4.03;;;10.50;1.00;;;;;;5074839;28;20582;-46
2022/10/02 04:45:52;;;;;;;21.00;4.00;;;10.50;1.00;;;;;;5090564;28;20526;-46
2022/10/02 04:48:23;;;;;;;7.17;3.43;;;10.60;1.00;;;;;;5090309;28;20439;-46
2022/10/02 04:51:10;;;;;;;8.40;3.80;;;10.60;1.00;;;;;;5090154;28;20462;-46
2022/10/02 04:53:49;;;;;;;11.80;4.00;;;10.60;1.00;;;;;;5090554;28;20419;-46
2022/10/02 04:56:40;;;;;;;17.40;4.23;;;10.60;1.00;;;;;;5090061;28;20446;-47
2022/10/02 04:59:24;;;;;;;8.77;4.10;;;10.60;1.00;;;;;;5090211;28;20442;-46
2022/10/02 05:02:27;;;;;;;13.73;4.20;;;10.60;1.00;;;;;;5091505;28;20462;-46
2022/10/02 05:05:20;;;;;;;9.93;4.30;;;10.60;1.00;;;;;;5094123;28;20446;-46
2022/10/02 05:08:04;;;;;;;13.13;4.40;;;10.60;1.00;;;;;;5094522;28;20518;-46
2022/10/02 05:10:39;;;;;;;10.37;4.57;;;10.50;1.00;;;;;;5094257;28;20912;-47
2022/10/02 05:13:22;;;;;;;11.63;4.93;;;10.50;1.00;;;;;;5093968;28;20410;-46
2022/10/02 05:15:58;;;;;;;12.00;4.33;;;10.60;1.00;;;;;;5094164;28;20434;-46
2022/10/02 05:18:40;;;;;;;14.13;4.23;;;10.60;1.00;;;;;;5093620;28;20407;-47
2022/10/02 05:21:39;;;;;;;9.57;4.33;;;10.60;1.00;;;;;;5094225;28;20419;-46
2022/10/02 05:24:26;;;;;;;12.03;4.33;;;10.60;1.00;;;;;;5093803;28;20443;-47
2022/10/02 05:27:07;;;;;;;12.30;4.87;;;10.60;1.00;;;;;;5093932;28;20407;-46
2022/10/02 05:29:51;;;;;;;13.83;5.00;;;10.60;1.00;;;;;;5093912;28;20403;-46
2022/10/02 05:32:25;;;;;;;24.37;5.67;;;10.60;1.00;;;;;;5093853;28;20952;-47
2022/10/02 05:35:19;;;;;;;18.57;5.50;;;10.60;1.00;;;;;;5093861;28;21082;-46
2022/10/02 05:38:06;;;;;;;13.27;6.20;;;10.60;1.00;;;;;;5093855;28;20428;-46
2022/10/02 05:40:40;;;;;;;16.03;6.10;;;10.60;1.00;;;;;;5093406;28;20467;-48
2022/10/02 05:43:11;;;;;;;17.73;6.27;;;10.60;1.00;;;;;;5093595;28;20455;-46
2022/10/02 05:45:45;;;;;;;13.40;5.97;;;10.50;1.00;;;;;;5093618;28;20411;-46
2022/10/02 05:48:53;;;;;;;16.97;6.17;;;10.50;1.00;;;;;;5093203;28;20403;-46
2022/10/02 05:51:42;;;;;;;17.83;5.90;;;10.60;1.00;;;;;;5093325;28;20466;-46
2022/10/02 05:54:11;;;;;;;20.83;5.70;;;10.70;1.00;;;;;;5093080;28;20466;-46
2022/10/02 05:56:42;;;;;;;21.80;6.27;;;10.70;1.00;;;;;;5091966;28;20450;-46
2022/10/02 05:59:27;;;;;;;19.20;6.00;;;10.80;1.00;;;;;;5093029;28;20502;-46
2022/10/02 06:01:56;;;;;;;23.03;5.97;;;10.90;1.00;;;;;;5092868;28;20470;-46
2022/10/02 06:04:35;;;;;;;16.80;5.93;;;11.00;1.00;;;;;;5093199;28;20842;-46
2022/10/02 06:07:07;;;;;;;13.80;5.90;;;11.10;1.00;;;;;;5092951;28;20415;-47
2022/10/02 06:09:46;;;;;;;12.27;6.20;;;11.10;1.00;;;;;;5092624;28;20502;-46
2022/10/02 06:12:25;;;;;;;18.50;6.33;;;11.20;1.00;;;;;;5090661;28;20431;-46
2022/10/02 06:15:05;;;;;;;10.83;5.60;;;11.30;1.00;;;;;;5092651;28;20431;-46
2022/10/02 06:17:39;;;;;;;17.67;6.00;;;11.30;1.00;;;;;;5092603;28;20407;-46
2022/10/02 06:20:37;;;;;;;15.23;5.43;;;11.40;1.00;;;;;;5092171;28;20448;-46
2022/10/02 06:23:23;;;;;;;11.47;4.50;;;11.40;1.00;;;;;;5083252;28;20477;-46
2022/10/02 06:26:22;;;;;;;17.33;5.33;;;11.40;1.00;;;;;;5091650;28;20445;-46
2022/10/02 06:28:59;;;;;;;17.83;5.07;;;11.40;1.00;;;;;;5026967;28;20536;-46
2022/10/02 06:31:40;;;;;;;11.80;4.40;;;11.50;1.00;;;;;;5091848;28;20419;-46
2022/10/02 06:34:13;;;;;;;10.93;3.30;;;11.50;99.90;;;;;;5092140;28;20458;-46
2022/10/02 06:36:50;;;;;;;10.80;4.90;;;11.50;99.90;;;;;;5092338;28;20948;-46
2022/10/02 06:39:16;;;;;;;8.70;2.90;;;11.50;99.90;;;;;;5084677;28;21299;-46
2022/10/02 06:41:48;;;;;;;10.93;2.20;;;11.60;99.90;;;;;;5092166;28;20466;-46
2022/10/02 06:44:20;;;;;;;15.10;3.23;;;11.50;99.90;;;;;;5093078;28;20196;-46
2022/10/02 06:46:49;;;;;;;6.30;2.63;;;11.50;99.90;;;;;;5091519;28;20427;-46
2022/10/02 06:49:29;;;;;;;11.63;2.60;;;11.50;99.90;;;;;;5091994;28;20496;-46
2022/10/02 06:52:09;;;;;;;12.17;2.60;;;11.60;99.90;;;;;;5091603;28;20502;-46
2022/10/02 06:54:59;;;;;;;9.50;2.70;;;11.60;99.90;;;;;;5091428;28;20815;-47
2022/10/02 06:57:55;;;;;;;7.00;2.70;;;11.60;99.90;;;;;;5084416;28;20932;-46
2022/10/02 07:00:21;;;;;;;6.90;2.90;;;11.60;99.90;;;;;;5091158;28;20959;-46
2022/10/02 07:03:08;;;;;;;8.60;2.30;;;11.60;99.90;;;;;;5085142;28;20467;-46
2022/10/02 07:06:21;;;;;;;4.83;2.30;;;11.60;99.90;;;;;;5091227;28;20201;-46
2022/10/02 07:09:24;;;;;;;6.93;2.03;;;11.70;99.90;;;;;;5019801;28;20434;-46
2022/10/02 07:12:23;;;;;;;9.53;3.00;;;11.80;99.90;;;;;;5077806;28;20495;-46
2022/10/02 07:15:25;;;;;;;7.17;3.00;;;12.00;99.90;;;;;;5091393;28;20423;-46
2022/10/02 07:18:07;;;;;;;8.20;2.50;;;12.10;99.90;;;;;;5068305;28;20496;-48
2022/10/02 07:21:05;;;;;;;7.80;2.80;;;12.30;99.90;;;;;;5085691;28;20488;-49
2022/10/02 07:23:58;;;;;;;12.90;3.47;;;12.70;99.90;;;;;;5068234;28;20828;-49
2022/10/02 07:26:34;;;;;;;7.10;2.80;;;13.20;1.00;;;;;;5089258;28;20475;-49
2022/10/02 07:29:12;;;;;;;7.60;2.77;;;13.20;1.00;;;;;;5089794;28;20446;-49
2022/10/02 07:32:23;;;;;;;8.60;3.00;;;13.10;99.90;;;;;;5091602;28;20487;-49
2022/10/02 07:35:03;;;;;;;5.90;2.57;;;13.00;99.90;;;;;;5051054;28;20454;-49
2022/10/02 07:38:02;;;;;;;6.57;2.80;;;12.80;99.90;;;;;;5089947;28;20936;-49
2022/10/02 07:40:34;;;;;;;11.57;3.17;;;12.70;1.00;;;;;;5090648;28;20999;-49
2022/10/02 07:43:24;;;;;;;12.87;3.60;;;12.50;1.00;;;;;;5087963;28;20455;-48
2022/10/02 07:46:15;;;;;;;11.10;3.07;;;12.40;1.00;;;;;;5091188;28;20470;-48
2022/10/02 07:49:03;;;;;;;9.57;3.30;;;12.30;1.00;;;;;;5089342;28;20421;-48
2022/10/02 07:51:52;;;;;;;10.57;2.57;;;12.20;1.00;;;;;;5088980;28;20492;-49
2022/10/02 07:54:37;;;;;;;9.47;2.73;;;12.20;37.70;;;;;;5089593;28;20438;-48
2022/10/02 07:57:39;;;;;;;7.17;2.57;;;12.20;94.50;;;;;;5083242;28;20948;-48
2022/10/02 08:00:17;;;;;;;12.17;3.13;;;12.40;99.90;;;;;;5086025;28;20427;-49
2022/10/02 08:02:54;;;;;;;9.60;3.20;;;12.50;99.90;;;;;;5084598;28;20826;-49
2022/10/02 08:05:28;;;;;;;8.67;2.70;;;12.90;99.90;;;;;;5089463;28;20576;-49
2022/10/02 08:08:01;;;;;;;7.30;2.93;;;13.00;1.00;;;;;;5088884;28;20438;-49
2022/10/02 08:10:32;;;;;;;8.43;3.00;;;12.90;1.00;;;;;;5089505;28;20419;-49
2022/10/02 08:13:15;;;;;;;8.93;3.13;;;12.90;1.00;;;;;;5084305;28;20439;-49
2022/10/02 08:15:43;;;;;;;6.50;2.67;;;13.60;1.00;;;;;;5081460;28;20443;-53
2022/10/02 08:18:31;;;;;;;10.90;2.43;;;14.90;1.00;;;;;;5089431;28;20446;-49
2022/10/02 08:20:58;;;;;;;8.60;2.53;;;16.30;1.00;;;;;;5039405;28;20451;-49
2022/10/02 08:23:30;;;;;;;5.80;2.30;;;16.70;99.90;;;;;;5089453;28;20507;-49
2022/10/02 08:25:56;;;;;;;8.20;2.10;;;17.50;1.00;;;;;;5070491;28;20546;-49
2022/10/02 08:28:37;;;;;;;5.40;2.77;;;17.90;99.90;;;;;;5089316;28;20438;-49
2022/10/02 08:31:09;;;;;;;6.20;2.03;;;17.50;99.90;;;;;;5088690;28;20443;-49
2022/10/02 08:33:35;;;;;;;7.87;2.50;;;16.50;99.90;;;;;;5089006;28;20481;-48
2022/10/02 08:36:17;;;;;;;10.07;2.77;;;15.80;1.00;;;;;;5090116;28;20972;-49
2022/10/02 08:38:52;;;;;;;9.30;2.97;;;15.00;26.70;;;;;;5093716;28;20229;-48
2022/10/02 08:41:35;;;;;;;8.77;2.67;;;14.50;99.90;;;;;;5092352;28;20446;-49
2022/10/02 08:44:32;;;;;;;7.00;2.70;;;14.00;1.00;;;;;;5087822;28;20447;-48
2022/10/02 08:47:31;;;;;;;11.07;3.33;;;13.70;1.00;;;;;;5091209;28;20434;-49
2022/10/02 08:50:48;;;;;;;7.67;2.57;;;13.50;1.00;;;;;;5091709;28;20529;-49
2022/10/02 08:53:56;;;;;;;9.83;3.07;;;13.30;1.00;;;;;;5042380;28;20457;-49
2022/10/02 08:56:52;;;;;;;8.67;3.00;;;13.20;99.90;;;;;;5037790;28;20457;-48
2022/10/02 08:59:26;;;;;;;9.70;3.30;;;13.20;99.90;;;;;;5092425;28;20446;-49
2022/10/02 09:02:28;;;;;;;12.60;3.80;;;13.20;99.90;;;;;;5093587;28;21284;-48
2022/10/02 09:05:26;;;;;;;11.03;3.60;;;13.20;1.00;;;;;;5084096;28;20873;-49
2022/10/02 09:08:13;;;;;;;13.50;5.30;;;13.40;1.00;;;;;;5092839;28;20427;-49
2022/10/02 09:11:02;;;;;;;7.77;3.67;;;13.60;53.80;;;;;;5095682;28;20443;-48
2022/10/02 09:14:04;;;;;;;8.67;3.90;;;13.90;99.90;;;;;;5092215;28;20430;-48
2022/10/02 09:16:58;;;;;;;8.70;3.33;;;14.00;99.90;;;;;;5076284;28;20461;-49
2022/10/02 09:20:08;;;;;;;11.93;3.63;;;14.00;21.60;;;;;;5081246;28;20447;-49
2022/10/02 09:22:55;;;;;;;8.23;3.67;;;13.90;64.30;;;;;;5060178;28;20892;-49
2022/10/02 09:25:36;;;;;;;16.60;4.20;;;13.80;1.00;;;;;;5090415;28;20492;-49
2022/10/02 09:28:26;;;;;;;11.80;3.53;;;13.70;1.00;;;;;;5092680;28;20542;-46
2022/10/02 09:31:21;;;;;;;9.33;3.63;;;13.60;1.00;;;;;;5084921;28;20427;-47
2022/10/02 09:34:15;;;;;;;10.40;3.77;;;13.60;99.90;;;;;;5075111;28;20940;-47
2022/10/02 09:36:59;;;;;;;11.20;3.77;;;13.90;99.90;;;;;;5092925;28;20462;-47
2022/10/02 09:39:50;;;;;;;7.70;3.50;;;14.40;1.00;;;;;;5091309;28;20434;-47
2022/10/02 09:42:40;;;;;;;9.10;2.40;;;14.70;99.90;;;;;;5086318;28;20775;-47
2022/10/02 09:45:42;;;;;;;8.37;2.37;;;15.00;99.90;;;;;;5089826;28;20431;-48
2022/10/02 09:48:41;;;;;;;7.40;2.37;;;15.30;1.00;;;;;;5085107;28;20441;-48
2022/10/02 09:51:26;;;;;;;9.13;1.70;;;15.30;1.00;;;;;;5091872;28;20462;-47
2022/10/02 09:54:10;;;;;;;7.30;2.30;;;15.30;99.90;;;;;;5092552;28;20435;-47
2022/10/02 09:56:58;;;;;;;5.67;2.30;;;15.10;1.00;;;;;;5092696;28;20419;-48
2022/10/02 09:59:53;;;;;;;8.23;2.47;;;14.90;1.00;;;;;;5092794;28;20813;-48
2022/10/02 10:02:46;;;;;;;6.20;1.80;;;14.70;1.00;;;;;;5085354;28;20481;-47
2022/10/02 10:05:21;;;;;;;5.60;2.00;;;14.60;1.00;;;;;;5090711;28;20968;-48
2022/10/02 10:08:09;;;;;;;6.83;2.07;;;14.70;31.20;;;;;;5092507;28;21109;-47
2022/10/02 10:10:43;;;;;;;9.87;2.27;;;14.80;1.00;;;;;;5083774;28;20435;-47
2022/10/02 10:13:51;;;;;;;6.83;2.33;;;14.90;1.00;;;;;;5075647;28;20477;-47
2022/10/02 10:16:32;;;;;;;6.60;1.80;;;15.20;1.00;;;;;;5075422;28;20430;-48
2022/10/02 10:19:32;;;;;;;4.63;1.40;;;15.40;99.90;;;;;;5076332;28;20441;-57
2022/10/02 10:22:25;;;;;;;4.70;1.57;;;15.60;99.90;;;;;;5075572;28;20468;-47
2022/10/02 10:24:56;;;;;;;7.57;1.90;;;16.10;99.90;;;;;;5075709;28;20431;-48
2022/10/02 10:27:34;;;;;;;6.70;1.80;;;16.50;1.00;;;;;;5074664;28;20453;-48
2022/10/02 10:30:42;;;;;;;3.80;1.63;;;16.70;1.00;;;;;;5082699;28;21323;-47
2022/10/02 10:33:19;;;;;;;8.10;1.93;;;17.10;1.00;;;;;;5084423;28;20948;-48
2022/10/02 10:36:00;;;;;;;10.20;1.97;;;17.70;1.00;;;;;;5085547;28;21198;-47
2022/10/02 10:38:44;;;;;;;5.30;1.83;;;17.90;1.00;;;;;;5076811;28;20453;-48
2022/10/02 10:41:56;;;;;;;6.73;1.80;;;18.50;1.00;;;;;;5072192;28;21193;-48
2022/10/02 10:44:58;;;;;;;8.50;2.17;;;19.60;1.00;;;;;;5076628;28;20457;-48
2022/10/02 10:47:42;;;;;;;6.57;1.80;;;20.90;1.00;;;;;;5076430;28;20443;-48
2022/10/02 10:50:37;;;;;;;12.90;2.23;;;21.40;1.00;;;;;;5081301;28;20430;-48
2022/10/02 10:53:23;;;;;;;11.87;2.53;;;21.90;1.00;;;;;;5077394;28;21463;-48
2022/10/02 10:56:08;;;;;;;7.80;1.80;;;22.40;1.00;;;;;;5076631;28;20455;-48
2022/10/02 10:58:42;;;;;;;9.30;1.83;;;22.60;1.00;;;;;;5074112;28;20423;-48
2022/10/02 11:01:49;;;;;;;11.03;2.07;;;22.70;1.00;;;;;;5073733;28;20518;-49
2022/10/02 11:04:43;;;;;;;6.90;1.80;;;22.70;1.00;;;;;;5067810;28;22231;-48
2022/10/02 11:07:34;;;;;;;8.83;2.00;;;22.80;1.00;;;;;;5087927;28;20493;-48
2022/10/02 11:10:06;;;;;;;10.73;2.47;;;23.20;1.00;;;;;;5085247;28;20443;-49
2022/10/02 11:12:50;;;;;;;11.27;2.40;;;22.70;1.00;;;;;;5073644;28;20438;-49
2022/10/02 11:15:34;;;;;;;8.70;2.20;;;21.40;1.00;;;;;;5077838;28;20473;-49
2022/10/02 11:18:14;;;;;;;11.33;2.20;;;21.10;1.00;;;;;;5074594;28;20435;-49
2022/10/02 11:20:51;;;;;;;9.83;2.93;;;20.10;1.00;;;;;;5083356;28;20497;-55
2022/10/02 11:23:46;;;;;;;9.57;2.60;;;19.20;1.00;;;;;;5076089;28;20549;-50
2022/10/02 11:26:33;;;;;;;10.90;2.30;;;18.70;1.00;;;;;;5078057;28;20427;-49
2022/10/02 11:29:07;;;;;;;10.47;2.50;;;18.90;1.00;;;;;;5073534;28;20493;-50
2022/10/02 11:31:49;;;;;;;10.60;2.33;;;19.90;1.00;;;;;;5073457;28;20447;-49
2022/10/02 11:34:47;;;;;;;15.97;2.57;;;21.00;1.00;;;;;;5073590;28;21448;-49
2022/10/02 11:37:23;;;;;;;8.50;1.97;;;21.00;1.00;;;;;;5074095;28;20427;-50
2022/10/02 11:40:11;;;;;;;8.20;2.43;;;21.90;1.00;;;;;;5073877;28;20792;-49
2022/10/02 11:42:49;;;;;;;8.00;1.87;;;22.40;1.00;;;;;;5072682;28;20463;-49
2022/10/02 11:45:53;;;;;;;6.37;1.80;;;22.80;99.90;;;;;;5074183;28;20477;-49
2022/10/02 11:48:42;;;;;;;5.40;1.70;;;22.70;99.90;;;;;;5073589;28;20430;-48
2022/10/02 11:51:34;;;;;;;3.77;1.53;;;21.90;99.90;;;;;;5074220;28;20493;-48
2022/10/02 11:54:21;;;;;;;7.77;2.10;;;21.70;99.90;;;;;;5054867;28;21187;-49
2022/10/02 11:57:08;;;;;;;10.57;2.23;;;22.20;99.90;;;;;;5072313;28;20481;-49
2022/10/02 12:00:03;;;;;;;9.03;2.13;;;22.90;99.90;;;;;;5072997;28;20445;-49
2022/10/02 12:02:37;;;;;;;8.53;2.70;;;23.50;99.90;;;;;;5072710;28;20475;-49
2022/10/02 12:05:08;;;;;;;5.27;1.80;;;23.70;99.90;;;;;;5078230;28;20993;-49
2022/10/02 12:07:36;;;;;;;8.93;2.40;;;23.90;99.90;;;;;;5075182;28;20435;-50
2022/10/02 12:10:24;;;;;;;7.17;2.40;;;23.80;99.90;;;;;;5081139;28;20454;-49
2022/10/02 12:13:14;;;;;;;7.23;2.20;;;24.10;99.90;;;;;;5072164;28;20439;-50
2022/10/02 12:15:39;;;;;;;7.10;2.10;;;24.30;99.90;;;;;;5072706;28;20789;-49
2022/10/02 12:18:42;;;;;;;7.93;2.10;;;23.70;99.90;;;;;;5073557;28;20532;-49
2022/10/02 12:26:57;;;;;;;10.23;2.07;;;23.20;99.90;;;;;;5077757;28;20873;-49
2022/10/02 12:27:49;;;;;;;10.97;2.13;;;23.10;99.90;;;;;;5076534;28;20435;-50
2022/10/02 12:30:22;;;;;;;9.77;1.90;;;23.50;99.90;;;;;;5090418;28;20407;-49
2022/10/02 12:33:07;;;;;;;8.23;2.07;;;24.00;99.90;;;;;;5079741;28;20495;-50
2022/10/02 12:35:38;;;;;;;8.80;1.93;;;24.30;99.90;;;;;;5090149;28;20930;-50
2022/10/02 12:38:13;;;;;;;6.23;1.67;;;24.40;99.90;;;;;;5077103;28;20426;-49
2022/10/02 12:41:32;;;;;;;10.20;2.40;;;24.20;99.90;;;;;;5089712;28;20434;-49
2022/10/02 12:44:06;;;;;;;15.03;2.60;;;24.50;99.90;;;;;;5043585;28;20440;-49
2022/10/02 12:47:09;;;;;;;8.70;2.50;;;24.80;99.90;;;;;;5087841;28;20508;-49
2022/10/02 12:49:42;;;;;;;9.30;2.07;;;24.90;99.90;;;;;;5090091;28;20423;-50
2022/10/02 12:52:42;;;;;;;8.30;2.13;;;24.70;99.90;;;;;;5088506;28;20508;-50
2022/10/02 12:55:35;;;;;;;9.30;2.23;;;24.50;99.90;;;;;;5086631;28;20459;-50
2022/10/02 12:58:09;;;;;;;13.93;2.43;;;24.30;99.90;;;;;;5089150;28;20508;-50
2022/10/02 13:00:54;;;;;;;11.43;2.70;;;24.70;99.90;;;;;;5089175;28;20446;-49
2022/10/02 13:03:38;;;;;;;10.53;3.20;;;24.70;99.90;;;;;;5089853;28;20478;-50
2022/10/02 13:06:40;;;;;;;11.23;2.43;;;24.60;99.90;;;;;;5089805;28;20423;-49
2022/10/02 13:09:14;;;;;;;10.13;2.20;;;24.70;99.90;;;;;;5089547;28;20458;-49
2022/10/02 13:11:56;;;;;;;8.37;2.27;;;24.50;99.90;;;;;;5090030;28;20430;-49
2022/10/02 13:15:00;;;;;;;9.23;2.27;;;23.60;99.90;;;;;;5083170;28;20591;-48
2022/10/02 13:17:45;;;;;;;10.60;3.23;;;23.00;99.90;;;;;;5084413;28;20415;-48
2022/10/02 13:20:26;;;;;;;10.40;2.57;;;22.50;99.90;;;;;;5087024;28;20958;-49
2022/10/02 13:23:18;;;;;;;11.67;2.27;;;22.60;99.90;;;;;;5089833;28;20474;-49
2022/10/02 13:26:21;;;;;;;8.93;2.33;;;22.30;99.90;;;;;;5093484;28;20422;-52
2022/10/02 13:29:01;;;;;;;14.17;2.63;;;22.70;99.90;;;;;;5089550;28;20518;-50
2022/10/02 13:31:56;;;;;;;20.43;2.47;;;23.10;99.90;;;;;;5086268;28;20441;-50
2022/10/02 13:34:42;;;;;;;12.10;2.63;;;23.00;99.90;;;;;;5086413;28;20546;-49
2022/10/02 13:37:30;;;;;;;10.37;2.60;;;22.60;99.90;;;;;;5089632;28;20434;-48
2022/10/02 13:40:13;;;;;;;7.10;2.30;;;22.50;99.90;;;;;;5089190;28;20442;-50
2022/10/02 13:43:19;;;;;;;10.37;2.03;;;22.30;99.90;;;;;;5092283;28;20498;-48
2022/10/02 13:46:12;;;;;;;9.50;2.57;;;22.50;99.90;;;;;;5088648;28;20422;-49
2022/10/02 13:48:47;;;;;;;12.33;2.23;;;22.20;99.90;;;;;;5087241;28;21058;-49
2022/10/02 13:51:29;;;;;;;15.80;2.70;;;22.30;99.90;;;;;;5091943;28;20469;-49
2022/10/02 13:54:18;;;;;;;16.73;2.87;;;22.10;99.90;;;;;;5092061;28;20509;-49
2022/10/02 13:56:59;;;;;;;11.00;2.70;;;21.90;99.90;;;;;;5088729;28;20793;-49
2022/10/02 14:00:01;;;;;;;14.23;2.30;;;21.80;99.90;;;;;;5085136;28;20951;-49
2022/10/02 14:02:50;;;;;;;16.53;2.30;;;21.10;99.90;;;;;;5085898;28;20505;-49
2022/10/02 14:05:53;;;;;;;14.40;2.73;;;20.50;99.90;;;;;;5092177;28;20436;-48
2022/10/02 14:08:30;;;;;;;15.77;2.37;;;19.40;99.90;;;;;;5093513;28;20513;-49
2022/10/02 14:11:07;;;;;;;10.07;2.50;;;19.10;99.90;;;;;;5091780;28;20908;-49